sensor_id;sensor_type;location;lat;lon;timestamp;P1;durP1;ratioP1;P2;durP2;ratioP2
44139;SDS011;29803;51.048;4.686;2022-07-24T00:00:16;41.33;;;25.30;;
44139;SDS011;29803;51.048;4.686;2022-07-24T00:02:47;32.17;;;22.40;;
44139;SDS011;29803;51.048;4.686;2022-07-24T00:05:17;44.10;;;25.80;;
44139;SDS011;29803;51.048;4.686;2022-07-24T00:07:49;48.17;;;27.65;;
44139;SDS011;29803;51.048;4.686;2022-07-24T00:10:19;43.55;;;27.05;;
44139;SDS011;29803;51.048;4.686;2022-07-24T00:12:50;40.38;;;25.75;;
44139;SDS011;29803;51.048;4.686;2022-07-24T00:15:20;54.67;;;31.88;;
44139;SDS011;29803;51.048;4.686;2022-07-24T00:17:51;45.65;;;29.63;;
44139;SDS011;29803;51.048;4.686;2022-07-24T00:20:21;56.88;;;32.60;;
44139;SDS011;29803;51.048;4.686;2022-07-24T00:22:52;58.72;;;32.78;;
44139;SDS011;29803;51.048;4.686;2022-07-24T00:25:23;60.65;;;36.60;;
44139;SDS011;29803;51.048;4.686;2022-07-24T00:27:53;54.15;;;32.13;;
44139;SDS011;29803;51.048;4.686;2022-07-24T00:30:24;60.83;;;37.72;;
44139;SDS011;29803;51.048;4.686;2022-07-24T00:32:54;60.17;;;35.20;;
44139;SDS011;29803;51.048;4.686;2022-07-24T00:35:25;80.18;;;41.10;;
44139;SDS011;29803;51.048;4.686;2022-07-24T00:37:55;68.85;;;38.47;;
44139;SDS011;29803;51.048;4.686;2022-07-24T00:40:26;66.57;;;38.60;;
44139;SDS011;29803;51.048;4.686;2022-07-24T00:42:57;66.60;;;37.75;;
44139;SDS011;29803;51.048;4.686;2022-07-24T00:45:28;69.55;;;38.95;;
44139;SDS011;29803;51.048;4.686;2022-07-24T00:47:58;77.72;;;43.78;;
44139;SDS011;29803;51.048;4.686;2022-07-24T00:50:29;84.47;;;44.15;;
44139;SDS011;29803;51.048;4.686;2022-07-24T00:53:00;92.45;;;45.08;;
44139;SDS011;29803;51.048;4.686;2022-07-24T00:55:30;99.95;;;49.83;;
44139;SDS011;29803;51.048;4.686;2022-07-24T00:58:03;103.82;;;50.25;;
44139;SDS011;29803;51.048;4.686;2022-07-24T01:00:34;109.50;;;51.60;;
44139;SDS011;29803;51.048;4.686;2022-07-24T01:03:04;112.90;;;52.08;;
44139;SDS011;29803;51.048;4.686;2022-07-24T01:05:35;106.55;;;53.83;;
44139;SDS011;29803;51.048;4.686;2022-07-24T01:08:06;118.82;;;54.83;;
44139;SDS011;29803;51.048;4.686;2022-07-24T01:10:36;122.63;;;55.20;;
44139;SDS011;29803;51.048;4.686;2022-07-24T01:13:07;129.57;;;58.05;;
44139;SDS011;29803;51.048;4.686;2022-07-24T01:15:39;123.07;;;57.08;;
44139;SDS011;29803;51.048;4.686;2022-07-24T01:18:10;130.07;;;58.38;;
44139;SDS011;29803;51.048;4.686;2022-07-24T01:20:40;116.00;;;55.70;;
44139;SDS011;29803;51.048;4.686;2022-07-24T01:23:17;112.07;;;53.65;;
44139;SDS011;29803;51.048;4.686;2022-07-24T01:25:47;115.28;;;53.25;;
44139;SDS011;29803;51.048;4.686;2022-07-24T01:28:18;118.70;;;52.20;;
44139;SDS011;29803;51.048;4.686;2022-07-24T01:30:48;109.80;;;50.45;;
44139;SDS011;29803;51.048;4.686;2022-07-24T01:33:19;112.03;;;51.47;;
44139;SDS011;29803;51.048;4.686;2022-07-24T01:35:50;109.72;;;53.13;;
44139;SDS011;29803;51.048;4.686;2022-07-24T01:38:21;119.15;;;55.58;;
44139;SDS011;29803;51.048;4.686;2022-07-24T01:40:52;131.70;;;59.25;;
44139;SDS011;29803;51.048;4.686;2022-07-24T01:43:23;114.70;;;54.88;;
44139;SDS011;29803;51.048;4.686;2022-07-24T01:45:54;135.38;;;59.17;;
44139;SDS011;29803;51.048;4.686;2022-07-24T01:48:25;120.75;;;54.78;;
44139;SDS011;29803;51.048;4.686;2022-07-24T01:50:55;110.22;;;52.83;;
44139;SDS011;29803;51.048;4.686;2022-07-24T01:53:26;81.93;;;40.58;;
44139;SDS011;29803;51.048;4.686;2022-07-24T01:55:57;71.82;;;37.72;;
44139;SDS011;29803;51.048;4.686;2022-07-24T01:58:28;97.03;;;45.78;;
44139;SDS011;29803;51.048;4.686;2022-07-24T02:00:58;104.85;;;49.78;;
44139;SDS011;29803;51.048;4.686;2022-07-24T02:03:29;113.15;;;51.65;;
44139;SDS011;29803;51.048;4.686;2022-07-24T02:05:59;106.82;;;51.67;;
44139;SDS011;29803;51.048;4.686;2022-07-24T02:08:30;113.05;;;50.78;;
44139;SDS011;29803;51.048;4.686;2022-07-24T02:11:01;117.05;;;55.15;;
44139;SDS011;29803;51.048;4.686;2022-07-24T02:13:32;113.90;;;51.45;;
44139;SDS011;29803;51.048;4.686;2022-07-24T02:16:02;112.28;;;52.65;;
44139;SDS011;29803;51.048;4.686;2022-07-24T02:18:33;114.75;;;52.35;;
44139;SDS011;29803;51.048;4.686;2022-07-24T02:21:03;97.97;;;44.45;;
44139;SDS011;29803;51.048;4.686;2022-07-24T02:23:34;74.55;;;35.85;;
44139;SDS011;29803;51.048;4.686;2022-07-24T02:26:04;102.70;;;46.75;;
44139;SDS011;29803;51.048;4.686;2022-07-24T02:28:35;104.05;;;48.85;;
44139;SDS011;29803;51.048;4.686;2022-07-24T02:31:06;100.88;;;47.65;;
44139;SDS011;29803;51.048;4.686;2022-07-24T02:33:37;100.38;;;48.40;;
44139;SDS011;29803;51.048;4.686;2022-07-24T02:36:07;98.45;;;48.45;;
44139;SDS011;29803;51.048;4.686;2022-07-24T02:38:38;107.25;;;50.35;;
44139;SDS011;29803;51.048;4.686;2022-07-24T02:41:09;100.30;;;48.53;;
44139;SDS011;29803;51.048;4.686;2022-07-24T02:43:40;107.13;;;49.13;;
44139;SDS011;29803;51.048;4.686;2022-07-24T02:46:10;104.13;;;48.38;;
44139;SDS011;29803;51.048;4.686;2022-07-24T02:48:41;102.20;;;47.83;;
44139;SDS011;29803;51.048;4.686;2022-07-24T02:51:11;94.43;;;46.35;;
44139;SDS011;29803;51.048;4.686;2022-07-24T02:53:42;139.65;;;43.55;;
44139;SDS011;29803;51.048;4.686;2022-07-24T02:56:12;59.25;;;32.88;;
44139;SDS011;29803;51.048;4.686;2022-07-24T02:58:43;76.35;;;40.05;;
44139;SDS011;29803;51.048;4.686;2022-07-24T03:01:13;76.55;;;41.38;;
44139;SDS011;29803;51.048;4.686;2022-07-24T03:03:44;96.50;;;43.65;;
44139;SDS011;29803;51.048;4.686;2022-07-24T03:06:15;109.90;;;49.65;;
44139;SDS011;29803;51.048;4.686;2022-07-24T03:08:46;115.47;;;52.28;;
44139;SDS011;29803;51.048;4.686;2022-07-24T03:11:16;104.90;;;50.50;;
44139;SDS011;29803;51.048;4.686;2022-07-24T03:13:47;89.88;;;44.13;;
44139;SDS011;29803;51.048;4.686;2022-07-24T03:16:18;94.80;;;47.13;;
44139;SDS011;29803;51.048;4.686;2022-07-24T03:18:49;104.78;;;49.42;;
44139;SDS011;29803;51.048;4.686;2022-07-24T03:21:19;103.32;;;47.55;;
44139;SDS011;29803;51.048;4.686;2022-07-24T03:23:50;101.90;;;46.83;;
44139;SDS011;29803;51.048;4.686;2022-07-24T03:26:20;230.27;;;51.20;;
44139;SDS011;29803;51.048;4.686;2022-07-24T03:28:51;79.22;;;36.28;;
44139;SDS011;29803;51.048;4.686;2022-07-24T03:31:21;192.65;;;48.50;;
44139;SDS011;29803;51.048;4.686;2022-07-24T03:33:52;103.60;;;38.20;;
44139;SDS011;29803;51.048;4.686;2022-07-24T03:36:22;49.78;;;30.58;;
44139;SDS011;29803;51.048;4.686;2022-07-24T03:38:53;65.15;;;34.30;;
44139;SDS011;29803;51.048;4.686;2022-07-24T03:41:24;80.38;;;40.58;;
44139;SDS011;29803;51.048;4.686;2022-07-24T03:43:54;80.97;;;39.65;;
44139;SDS011;29803;51.048;4.686;2022-07-24T03:46:25;95.85;;;44.40;;
44139;SDS011;29803;51.048;4.686;2022-07-24T03:48:58;74.78;;;36.67;;
44139;SDS011;29803;51.048;4.686;2022-07-24T03:51:28;90.22;;;39.97;;
44139;SDS011;29803;51.048;4.686;2022-07-24T03:53:59;90.95;;;33.97;;
44139;SDS011;29803;51.048;4.686;2022-07-24T03:56:30;54.78;;;27.30;;
44139;SDS011;29803;51.048;4.686;2022-07-24T03:59:00;69.45;;;36.25;;
44139;SDS011;29803;51.048;4.686;2022-07-24T04:01:31;84.18;;;38.58;;
44139;SDS011;29803;51.048;4.686;2022-07-24T04:04:01;71.45;;;37.05;;
44139;SDS011;29803;51.048;4.686;2022-07-24T04:06:34;55.03;;;32.00;;
44139;SDS011;29803;51.048;4.686;2022-07-24T04:09:05;69.25;;;32.78;;
44139;SDS011;29803;51.048;4.686;2022-07-24T04:11:36;64.53;;;33.38;;
44139;SDS011;29803;51.048;4.686;2022-07-24T04:14:06;51.85;;;30.50;;
44139;SDS011;29803;51.048;4.686;2022-07-24T04:16:37;61.75;;;34.70;;
44139;SDS011;29803;51.048;4.686;2022-07-24T04:19:07;55.92;;;30.95;;
44139;SDS011;29803;51.048;4.686;2022-07-24T04:21:38;55.47;;;31.77;;
44139;SDS011;29803;51.048;4.686;2022-07-24T04:24:10;62.88;;;32.80;;
44139;SDS011;29803;51.048;4.686;2022-07-24T04:26:40;49.30;;;28.52;;
44139;SDS011;29803;51.048;4.686;2022-07-24T04:29:11;41.33;;;24.33;;
44139;SDS011;29803;51.048;4.686;2022-07-24T04:31:41;42.85;;;23.35;;
44139;SDS011;29803;51.048;4.686;2022-07-24T04:34:12;48.67;;;28.00;;
44139;SDS011;29803;51.048;4.686;2022-07-24T04:36:42;46.33;;;27.02;;
44139;SDS011;29803;51.048;4.686;2022-07-24T04:39:13;56.17;;;30.10;;
44139;SDS011;29803;51.048;4.686;2022-07-24T04:41:43;41.20;;;28.30;;
44139;SDS011;29803;51.048;4.686;2022-07-24T04:44:14;40.42;;;27.25;;
44139;SDS011;29803;51.048;4.686;2022-07-24T04:46:45;38.38;;;26.20;;
44139;SDS011;29803;51.048;4.686;2022-07-24T04:49:15;48.10;;;27.45;;
44139;SDS011;29803;51.048;4.686;2022-07-24T04:51:46;41.28;;;26.27;;
44139;SDS011;29803;51.048;4.686;2022-07-24T04:54:16;47.20;;;26.52;;
44139;SDS011;29803;51.048;4.686;2022-07-24T04:56:47;56.33;;;30.88;;
44139;SDS011;29803;51.048;4.686;2022-07-24T04:59:17;60.50;;;33.75;;
44139;SDS011;29803;51.048;4.686;2022-07-24T05:01:48;71.70;;;37.20;;
44139;SDS011;29803;51.048;4.686;2022-07-24T05:04:18;70.57;;;36.75;;
44139;SDS011;29803;51.048;4.686;2022-07-24T05:06:49;76.20;;;39.88;;
44139;SDS011;29803;51.048;4.686;2022-07-24T05:09:20;81.13;;;41.15;;
44139;SDS011;29803;51.048;4.686;2022-07-24T05:11:50;73.65;;;39.75;;
44139;SDS011;29803;51.048;4.686;2022-07-24T05:14:21;78.45;;;41.80;;
44139;SDS011;29803;51.048;4.686;2022-07-24T05:16:53;84.93;;;42.97;;
44139;SDS011;29803;51.048;4.686;2022-07-24T05:19:23;95.55;;;45.72;;
44139;SDS011;29803;51.048;4.686;2022-07-24T05:21:54;94.75;;;46.08;;
44139;SDS011;29803;51.048;4.686;2022-07-24T05:24:24;84.18;;;44.40;;
44139;SDS011;29803;51.048;4.686;2022-07-24T05:26:55;88.15;;;44.08;;
44139;SDS011;29803;51.048;4.686;2022-07-24T05:29:26;91.18;;;43.83;;
44139;SDS011;29803;51.048;4.686;2022-07-24T05:31:56;77.32;;;40.05;;
44139;SDS011;29803;51.048;4.686;2022-07-24T05:34:27;78.78;;;40.30;;
44139;SDS011;29803;51.048;4.686;2022-07-24T05:36:57;66.78;;;38.05;;
44139;SDS011;29803;51.048;4.686;2022-07-24T05:39:28;73.95;;;38.97;;
44139;SDS011;29803;51.048;4.686;2022-07-24T05:41:58;71.88;;;39.60;;
44139;SDS011;29803;51.048;4.686;2022-07-24T05:44:29;63.63;;;36.28;;
44139;SDS011;29803;51.048;4.686;2022-07-24T05:46:59;67.22;;;37.25;;
44139;SDS011;29803;51.048;4.686;2022-07-24T05:49:30;67.95;;;36.00;;
44139;SDS011;29803;51.048;4.686;2022-07-24T05:52:00;60.90;;;33.35;;
44139;SDS011;29803;51.048;4.686;2022-07-24T05:54:32;51.22;;;30.55;;
44139;SDS011;29803;51.048;4.686;2022-07-24T05:57:02;56.40;;;31.13;;
44139;SDS011;29803;51.048;4.686;2022-07-24T05:59:33;54.60;;;30.60;;
44139;SDS011;29803;51.048;4.686;2022-07-24T06:02:04;59.13;;;29.98;;
44139;SDS011;29803;51.048;4.686;2022-07-24T06:04:34;50.88;;;28.88;;
44139;SDS011;29803;51.048;4.686;2022-07-24T06:07:06;39.28;;;24.23;;
44139;SDS011;29803;51.048;4.686;2022-07-24T06:09:37;40.00;;;22.90;;
44139;SDS011;29803;51.048;4.686;2022-07-24T06:12:08;41.08;;;23.50;;
44139;SDS011;29803;51.048;4.686;2022-07-24T06:14:39;34.70;;;20.75;;
44139;SDS011;29803;51.048;4.686;2022-07-24T06:17:09;31.48;;;19.85;;
44139;SDS011;29803;51.048;4.686;2022-07-24T06:19:40;26.95;;;18.15;;
44139;SDS011;29803;51.048;4.686;2022-07-24T06:22:10;25.70;;;17.67;;
44139;SDS011;29803;51.048;4.686;2022-07-24T06:24:41;28.77;;;17.52;;
44139;SDS011;29803;51.048;4.686;2022-07-24T06:27:11;20.75;;;15.68;;
44139;SDS011;29803;51.048;4.686;2022-07-24T06:29:42;24.25;;;16.88;;
44139;SDS011;29803;51.048;4.686;2022-07-24T06:32:12;24.45;;;16.15;;
44139;SDS011;29803;51.048;4.686;2022-07-24T06:34:43;20.60;;;13.65;;
44139;SDS011;29803;51.048;4.686;2022-07-24T06:37:13;20.23;;;14.27;;
44139;SDS011;29803;51.048;4.686;2022-07-24T06:39:44;18.50;;;13.57;;
44139;SDS011;29803;51.048;4.686;2022-07-24T06:42:14;15.77;;;10.18;;
44139;SDS011;29803;51.048;4.686;2022-07-24T06:44:45;16.77;;;9.73;;
44139;SDS011;29803;51.048;4.686;2022-07-24T06:47:15;13.65;;;9.45;;
44139;SDS011;29803;51.048;4.686;2022-07-24T06:49:46;11.95;;;8.88;;
44139;SDS011;29803;51.048;4.686;2022-07-24T06:52:16;13.00;;;8.73;;
44139;SDS011;29803;51.048;4.686;2022-07-24T06:54:47;12.82;;;7.72;;
44139;SDS011;29803;51.048;4.686;2022-07-24T06:57:17;10.93;;;7.32;;
44139;SDS011;29803;51.048;4.686;2022-07-24T06:59:48;10.32;;;7.15;;
44139;SDS011;29803;51.048;4.686;2022-07-24T07:02:20;10.75;;;6.93;;
44139;SDS011;29803;51.048;4.686;2022-07-24T07:04:51;12.23;;;6.88;;
44139;SDS011;29803;51.048;4.686;2022-07-24T07:07:22;9.00;;;6.10;;
44139;SDS011;29803;51.048;4.686;2022-07-24T07:09:54;9.95;;;5.75;;
44139;SDS011;29803;51.048;4.686;2022-07-24T07:12:24;7.53;;;5.00;;
44139;SDS011;29803;51.048;4.686;2022-07-24T07:14:55;7.75;;;5.00;;
44139;SDS011;29803;51.048;4.686;2022-07-24T07:17:28;6.68;;;4.78;;
44139;SDS011;29803;51.048;4.686;2022-07-24T07:19:59;6.97;;;4.60;;
44139;SDS011;29803;51.048;4.686;2022-07-24T07:22:29;6.57;;;3.97;;
44139;SDS011;29803;51.048;4.686;2022-07-24T07:25:00;8.43;;;4.38;;
44139;SDS011;29803;51.048;4.686;2022-07-24T07:27:30;6.60;;;4.22;;
44139;SDS011;29803;51.048;4.686;2022-07-24T07:30:02;8.38;;;3.65;;
44139;SDS011;29803;51.048;4.686;2022-07-24T07:32:34;6.32;;;4.10;;
44139;SDS011;29803;51.048;4.686;2022-07-24T07:35:04;4.93;;;3.67;;
44139;SDS011;29803;51.048;4.686;2022-07-24T07:37:35;5.82;;;3.92;;
44139;SDS011;29803;51.048;4.686;2022-07-24T07:40:06;5.22;;;3.40;;
44139;SDS011;29803;51.048;4.686;2022-07-24T07:42:37;5.00;;;3.67;;
44139;SDS011;29803;51.048;4.686;2022-07-24T07:45:07;5.20;;;3.55;;
44139;SDS011;29803;51.048;4.686;2022-07-24T07:47:38;4.03;;;3.38;;
44139;SDS011;29803;51.048;4.686;2022-07-24T07:50:09;3.50;;;3.08;;
44139;SDS011;29803;51.048;4.686;2022-07-24T07:52:40;6.63;;;4.00;;
44139;SDS011;29803;51.048;4.686;2022-07-24T07:55:11;4.82;;;3.25;;
44139;SDS011;29803;51.048;4.686;2022-07-24T07:57:42;6.18;;;3.20;;
44139;SDS011;29803;51.048;4.686;2022-07-24T08:00:13;5.55;;;3.03;;
44139;SDS011;29803;51.048;4.686;2022-07-24T08:02:44;4.10;;;2.90;;
44139;SDS011;29803;51.048;4.686;2022-07-24T08:05:15;5.07;;;3.05;;
44139;SDS011;29803;51.048;4.686;2022-07-24T08:07:46;7.68;;;2.92;;
44139;SDS011;29803;51.048;4.686;2022-07-24T08:10:16;3.35;;;2.25;;
44139;SDS011;29803;51.048;4.686;2022-07-24T08:12:47;7.88;;;2.78;;
44139;SDS011;29803;51.048;4.686;2022-07-24T08:15:17;6.40;;;3.00;;
44139;SDS011;29803;51.048;4.686;2022-07-24T08:20:34;3.97;;;2.88;;
44139;SDS011;29803;51.048;4.686;2022-07-24T08:23:05;3.20;;;2.42;;
44139;SDS011;29803;51.048;4.686;2022-07-24T08:25:35;4.30;;;2.63;;
44139;SDS011;29803;51.048;4.686;2022-07-24T08:28:06;4.50;;;2.30;;
44139;SDS011;29803;51.048;4.686;2022-07-24T08:30:36;4.65;;;2.65;;
44139;SDS011;29803;51.048;4.686;2022-07-24T08:33:07;4.75;;;2.35;;
44139;SDS011;29803;51.048;4.686;2022-07-24T08:35:37;3.60;;;2.60;;
44139;SDS011;29803;51.048;4.686;2022-07-24T08:38:08;3.45;;;2.75;;
44139;SDS011;29803;51.048;4.686;2022-07-24T08:40:39;3.67;;;2.60;;
44139;SDS011;29803;51.048;4.686;2022-07-24T08:43:10;5.55;;;2.72;;
44139;SDS011;29803;51.048;4.686;2022-07-24T08:45:41;4.22;;;2.60;;
44139;SDS011;29803;51.048;4.686;2022-07-24T08:48:14;4.93;;;2.40;;
44139;SDS011;29803;51.048;4.686;2022-07-24T08:50:45;6.38;;;2.55;;
44139;SDS011;29803;51.048;4.686;2022-07-24T08:53:15;4.07;;;2.30;;
44139;SDS011;29803;51.048;4.686;2022-07-24T08:58:20;4.95;;;2.63;;
44139;SDS011;29803;51.048;4.686;2022-07-24T09:00:51;5.35;;;2.33;;
44139;SDS011;29803;51.048;4.686;2022-07-24T09:03:21;3.83;;;2.50;;
44139;SDS011;29803;51.048;4.686;2022-07-24T09:08:43;4.05;;;2.25;;
44139;SDS011;29803;51.048;4.686;2022-07-24T09:11:27;3.75;;;2.40;;
44139;SDS011;29803;51.048;4.686;2022-07-24T09:14:00;8.35;;;2.50;;
44139;SDS011;29803;51.048;4.686;2022-07-24T09:16:50;4.65;;;2.60;;
44139;SDS011;29803;51.048;4.686;2022-07-24T09:19:20;2.88;;;2.30;;
44139;SDS011;29803;51.048;4.686;2022-07-24T09:21:51;3.00;;;2.40;;
44139;SDS011;29803;51.048;4.686;2022-07-24T09:24:23;4.13;;;2.35;;
44139;SDS011;29803;51.048;4.686;2022-07-24T09:26:54;2.92;;;2.33;;
44139;SDS011;29803;51.048;4.686;2022-07-24T09:29:26;4.13;;;2.30;;
44139;SDS011;29803;51.048;4.686;2022-07-24T09:31:58;5.45;;;2.47;;
44139;SDS011;29803;51.048;4.686;2022-07-24T09:34:37;3.53;;;2.63;;
44139;SDS011;29803;51.048;4.686;2022-07-24T09:37:09;3.75;;;2.03;;
44139;SDS011;29803;51.048;4.686;2022-07-24T09:39:40;4.43;;;2.40;;
44139;SDS011;29803;51.048;4.686;2022-07-24T09:42:11;3.20;;;2.40;;
44139;SDS011;29803;51.048;4.686;2022-07-24T09:44:42;3.97;;;2.10;;
44139;SDS011;29803;51.048;4.686;2022-07-24T09:47:15;4.70;;;2.50;;
44139;SDS011;29803;51.048;4.686;2022-07-24T09:49:46;3.80;;;2.50;;
44139;SDS011;29803;51.048;4.686;2022-07-24T09:52:18;3.30;;;2.70;;
44139;SDS011;29803;51.048;4.686;2022-07-24T09:54:49;4.55;;;2.35;;
44139;SDS011;29803;51.048;4.686;2022-07-24T09:59:57;4.10;;;2.15;;
44139;SDS011;29803;51.048;4.686;2022-07-24T10:02:31;3.17;;;2.22;;
44139;SDS011;29803;51.048;4.686;2022-07-24T10:05:03;3.58;;;2.10;;
44139;SDS011;29803;51.048;4.686;2022-07-24T10:07:34;3.88;;;2.10;;
44139;SDS011;29803;51.048;4.686;2022-07-24T10:10:05;5.68;;;2.40;;
44139;SDS011;29803;51.048;4.686;2022-07-24T10:12:36;3.35;;;2.33;;
44139;SDS011;29803;51.048;4.686;2022-07-24T10:15:08;3.90;;;2.40;;
44139;SDS011;29803;51.048;4.686;2022-07-24T10:17:58;4.65;;;2.20;;
44139;SDS011;29803;51.048;4.686;2022-07-24T10:20:47;5.30;;;2.53;;
44139;SDS011;29803;51.048;4.686;2022-07-24T10:23:21;3.72;;;2.33;;
44139;SDS011;29803;51.048;4.686;2022-07-24T10:25:59;8.05;;;2.30;;
44139;SDS011;29803;51.048;4.686;2022-07-24T10:28:38;5.25;;;2.80;;
44139;SDS011;29803;51.048;4.686;2022-07-24T10:31:12;3.45;;;2.22;;
44139;SDS011;29803;51.048;4.686;2022-07-24T10:33:46;5.55;;;2.20;;
44139;SDS011;29803;51.048;4.686;2022-07-24T10:36:25;3.30;;;2.20;;
44139;SDS011;29803;51.048;4.686;2022-07-24T10:39:03;3.78;;;1.90;;
44139;SDS011;29803;51.048;4.686;2022-07-24T10:41:41;3.85;;;1.98;;
44139;SDS011;29803;51.048;4.686;2022-07-24T10:44:13;4.30;;;2.00;;
44139;SDS011;29803;51.048;4.686;2022-07-24T10:46:57;3.42;;;2.05;;
44139;SDS011;29803;51.048;4.686;2022-07-24T10:58:01;3.22;;;1.95;;
44139;SDS011;29803;51.048;4.686;2022-07-24T11:00:43;2.22;;;2.03;;
44139;SDS011;29803;51.048;4.686;2022-07-24T11:08:39;2.47;;;1.80;;
44139;SDS011;29803;51.048;4.686;2022-07-24T11:11:20;2.72;;;1.52;;
44139;SDS011;29803;51.048;4.686;2022-07-24T11:13:54;4.20;;;1.90;;
44139;SDS011;29803;51.048;4.686;2022-07-24T11:16:28;3.03;;;1.95;;
44139;SDS011;29803;51.048;4.686;2022-07-24T11:21:31;6.53;;;1.85;;
44139;SDS011;29803;51.048;4.686;2022-07-24T11:24:22;3.10;;;2.10;;
44139;SDS011;29803;51.048;4.686;2022-07-24T11:26:58;3.17;;;1.90;;
44139;SDS011;29803;51.048;4.686;2022-07-24T11:29:51;3.42;;;1.70;;
44139;SDS011;29803;51.048;4.686;2022-07-24T11:32:22;2.50;;;1.60;;
44139;SDS011;29803;51.048;4.686;2022-07-24T11:34:58;3.97;;;1.95;;
44139;SDS011;29803;51.048;4.686;2022-07-24T11:37:31;2.83;;;1.67;;
44139;SDS011;29803;51.048;4.686;2022-07-24T11:40:03;3.05;;;1.77;;
44139;SDS011;29803;51.048;4.686;2022-07-24T11:42:36;2.35;;;1.90;;
44139;SDS011;29803;51.048;4.686;2022-07-24T11:45:07;4.13;;;1.70;;
44139;SDS011;29803;51.048;4.686;2022-07-24T11:47:38;4.03;;;1.70;;
44139;SDS011;29803;51.048;4.686;2022-07-24T11:50:08;4.70;;;1.65;;
44139;SDS011;29803;51.048;4.686;2022-07-24T11:52:40;2.78;;;1.73;;
44139;SDS011;29803;51.048;4.686;2022-07-24T11:55:13;3.35;;;1.90;;
44139;SDS011;29803;51.048;4.686;2022-07-24T11:57:46;2.20;;;1.57;;
44139;SDS011;29803;51.048;4.686;2022-07-24T12:00:20;1.73;;;1.63;;
44139;SDS011;29803;51.048;4.686;2022-07-24T12:03:09;2.08;;;1.50;;
44139;SDS011;29803;51.048;4.686;2022-07-24T12:05:40;2.25;;;1.55;;
44139;SDS011;29803;51.048;4.686;2022-07-24T12:10:58;3.17;;;1.75;;
44139;SDS011;29803;51.048;4.686;2022-07-24T12:13:32;3.55;;;1.77;;
44139;SDS011;29803;51.048;4.686;2022-07-24T12:16:03;3.78;;;1.50;;
44139;SDS011;29803;51.048;4.686;2022-07-24T12:18:33;4.65;;;1.67;;
44139;SDS011;29803;51.048;4.686;2022-07-24T12:21:04;1.73;;;1.50;;
44139;SDS011;29803;51.048;4.686;2022-07-24T12:23:35;4.18;;;1.40;;
44139;SDS011;29803;51.048;4.686;2022-07-24T12:26:05;1.85;;;1.45;;
44139;SDS011;29803;51.048;4.686;2022-07-24T12:28:36;3.00;;;1.58;;
44139;SDS011;29803;51.048;4.686;2022-07-24T12:31:07;3.47;;;1.60;;
44139;SDS011;29803;51.048;4.686;2022-07-24T12:33:39;2.63;;;1.25;;
44139;SDS011;29803;51.048;4.686;2022-07-24T12:36:11;4.22;;;1.52;;
44139;SDS011;29803;51.048;4.686;2022-07-24T12:38:50;2.00;;;1.80;;
44139;SDS011;29803;51.048;4.686;2022-07-24T12:41:23;1.52;;;1.33;;
44139;SDS011;29803;51.048;4.686;2022-07-24T12:43:57;1.85;;;1.50;;
44139;SDS011;29803;51.048;4.686;2022-07-24T12:46:30;1.58;;;1.42;;
44139;SDS011;29803;51.048;4.686;2022-07-24T12:49:03;2.60;;;1.45;;
44139;SDS011;29803;51.048;4.686;2022-07-24T12:51:52;1.73;;;1.42;;
44139;SDS011;29803;51.048;4.686;2022-07-24T12:54:45;4.25;;;1.60;;
44139;SDS011;29803;51.048;4.686;2022-07-24T12:57:20;1.60;;;1.50;;
44139;SDS011;29803;51.048;4.686;2022-07-24T12:59:51;1.85;;;1.52;;
44139;SDS011;29803;51.048;4.686;2022-07-24T13:02:30;2.20;;;1.65;;
44139;SDS011;29803;51.048;4.686;2022-07-24T13:05:01;3.38;;;1.65;;
44139;SDS011;29803;51.048;4.686;2022-07-24T13:07:31;3.35;;;1.63;;
44139;SDS011;29803;51.048;4.686;2022-07-24T13:10:02;2.03;;;1.60;;
44139;SDS011;29803;51.048;4.686;2022-07-24T13:12:32;4.10;;;1.80;;
44139;SDS011;29803;51.048;4.686;2022-07-24T13:15:03;3.47;;;1.98;;
44139;SDS011;29803;51.048;4.686;2022-07-24T13:17:34;3.45;;;1.80;;
44139;SDS011;29803;51.048;4.686;2022-07-24T13:20:04;2.85;;;2.00;;
44139;SDS011;29803;51.048;4.686;2022-07-24T13:22:37;7.93;;;2.10;;
44139;SDS011;29803;51.048;4.686;2022-07-24T13:25:07;3.38;;;1.80;;
44139;SDS011;29803;51.048;4.686;2022-07-24T13:27:38;3.17;;;2.35;;
44139;SDS011;29803;51.048;4.686;2022-07-24T13:30:09;4.53;;;2.30;;
44139;SDS011;29803;51.048;4.686;2022-07-24T13:32:40;5.28;;;2.53;;
44139;SDS011;29803;51.048;4.686;2022-07-24T13:35:10;4.82;;;2.13;;
44139;SDS011;29803;51.048;4.686;2022-07-24T13:37:41;8.60;;;2.50;;
44139;SDS011;29803;51.048;4.686;2022-07-24T13:40:11;2.50;;;2.30;;
44139;SDS011;29803;51.048;4.686;2022-07-24T13:42:43;3.65;;;2.40;;
44139;SDS011;29803;51.048;4.686;2022-07-24T13:45:14;3.65;;;2.58;;
44139;SDS011;29803;51.048;4.686;2022-07-24T13:47:44;2.90;;;2.30;;
44139;SDS011;29803;51.048;4.686;2022-07-24T13:50:15;4.47;;;2.65;;
44139;SDS011;29803;51.048;4.686;2022-07-24T13:52:45;3.50;;;2.47;;
44139;SDS011;29803;51.048;4.686;2022-07-24T13:55:16;2.55;;;2.30;;
44139;SDS011;29803;51.048;4.686;2022-07-24T13:57:46;5.88;;;2.47;;
44139;SDS011;29803;51.048;4.686;2022-07-24T14:00:17;3.13;;;2.50;;
44139;SDS011;29803;51.048;4.686;2022-07-24T14:02:47;3.22;;;2.13;;
44139;SDS011;29803;51.048;4.686;2022-07-24T14:05:18;2.53;;;2.13;;
44139;SDS011;29803;51.048;4.686;2022-07-24T14:07:49;3.95;;;2.42;;
44139;SDS011;29803;51.048;4.686;2022-07-24T14:10:20;9.98;;;2.55;;
44139;SDS011;29803;51.048;4.686;2022-07-24T14:12:51;5.00;;;2.60;;
44139;SDS011;29803;51.048;4.686;2022-07-24T14:15:22;4.47;;;2.40;;
44139;SDS011;29803;51.048;4.686;2022-07-24T14:17:52;4.95;;;2.60;;
44139;SDS011;29803;51.048;4.686;2022-07-24T14:20:23;2.83;;;2.47;;
44139;SDS011;29803;51.048;4.686;2022-07-24T14:22:53;3.05;;;2.28;;
44139;SDS011;29803;51.048;4.686;2022-07-24T14:25:24;3.20;;;2.60;;
44139;SDS011;29803;51.048;4.686;2022-07-24T14:27:54;4.55;;;2.60;;
44139;SDS011;29803;51.048;4.686;2022-07-24T14:30:26;4.07;;;2.63;;
44139;SDS011;29803;51.048;4.686;2022-07-24T14:32:57;6.13;;;2.50;;
44139;SDS011;29803;51.048;4.686;2022-07-24T14:35:27;5.45;;;2.50;;
44139;SDS011;29803;51.048;4.686;2022-07-24T14:37:59;4.40;;;2.35;;
44139;SDS011;29803;51.048;4.686;2022-07-24T14:40:29;3.75;;;2.40;;
44139;SDS011;29803;51.048;4.686;2022-07-24T14:43:00;3.72;;;2.20;;
44139;SDS011;29803;51.048;4.686;2022-07-24T14:45:30;3.88;;;2.42;;
44139;SDS011;29803;51.048;4.686;2022-07-24T14:48:01;5.90;;;2.60;;
44139;SDS011;29803;51.048;4.686;2022-07-24T14:50:31;3.60;;;2.28;;
44139;SDS011;29803;51.048;4.686;2022-07-24T14:53:02;3.67;;;2.42;;
44139;SDS011;29803;51.048;4.686;2022-07-24T14:55:32;3.13;;;2.60;;
44139;SDS011;29803;51.048;4.686;2022-07-24T14:58:03;2.92;;;2.22;;
44139;SDS011;29803;51.048;4.686;2022-07-24T15:00:34;5.35;;;2.50;;
44139;SDS011;29803;51.048;4.686;2022-07-24T15:03:04;3.75;;;2.53;;
44139;SDS011;29803;51.048;4.686;2022-07-24T15:05:34;6.45;;;2.53;;
44139;SDS011;29803;51.048;4.686;2022-07-24T15:08:05;3.30;;;2.65;;
44139;SDS011;29803;51.048;4.686;2022-07-24T15:10:35;3.58;;;2.50;;
44139;SDS011;29803;51.048;4.686;2022-07-24T15:13:06;6.93;;;2.90;;
44139;SDS011;29803;51.048;4.686;2022-07-24T15:15:36;6.35;;;2.78;;
44139;SDS011;29803;51.048;4.686;2022-07-24T15:18:08;4.35;;;2.72;;
44139;SDS011;29803;51.048;4.686;2022-07-24T15:20:38;3.33;;;2.65;;
44139;SDS011;29803;51.048;4.686;2022-07-24T15:23:09;3.75;;;2.92;;
44139;SDS011;29803;51.048;4.686;2022-07-24T15:25:41;3.75;;;2.90;;
44139;SDS011;29803;51.048;4.686;2022-07-24T15:28:11;5.47;;;3.00;;